sensor_id;sensor_type;location;lat;lon;timestamp;pressure;altitude;pressure_sealevel;temperature;humidity
21096;BME280;10706;49.036;12.112;2023-03-08T00:01:49;96292.84;;;2.27;61.87
21096;BME280;10706;49.036;12.112;2023-03-08T00:04:15;96294.88;;;2.25;63.47
21096;BME280;10706;49.036;12.112;2023-03-08T00:06:41;96290.78;;;2.29;63.24
21096;BME280;10706;49.036;12.112;2023-03-08T00:09:07;96294.22;;;2.30;61.99
21096;BME280;10706;49.036;12.112;2023-03-08T00:11:34;96295.84;;;2.31;62.30
21096;BME280;10706;49.036;12.112;2023-03-08T00:13:59;96292.53;;;2.36;62.76
21096;BME280;10706;49.036;12.112;2023-03-08T00:16:27;96298.22;;;2.32;62.23
21096;BME280;10706;49.036;12.112;2023-03-08T00:18:53;96309.34;;;2.34;62.37
21096;BME280;10706;49.036;12.112;2023-03-08T00:21:19;96309.13;;;2.36;63.34
21096;BME280;10706;49.036;12.112;2023-03-08T00:23:45;96306.72;;;2.34;62.54
21096;BME280;10706;49.036;12.112;2023-03-08T00:26:11;96300.66;;;2.34;63.21
21096;BME280;10706;49.036;12.112;2023-03-08T00:28:38;96307.09;;;2.38;63.75
21096;BME280;10706;49.036;12.112;2023-03-08T00:31:08;96302.06;;;2.37;63.44
21096;BME280;10706;49.036;12.112;2023-03-08T00:33:35;96312.59;;;2.37;63.44
21096;BME280;10706;49.036;12.112;2023-03-08T00:36:16;96308.78;;;2.32;62.31
21096;BME280;10706;49.036;12.112;2023-03-08T00:38:43;96323.41;;;2.28;62.96
21096;BME280;10706;49.036;12.112;2023-03-08T00:41:09;96308.25;;;2.24;64.19
21096;BME280;10706;49.036;12.112;2023-03-08T00:43:35;96308.09;;;2.19;63.80
21096;BME280;10706;49.036;12.112;2023-03-08T00:46:01;96321.31;;;2.12;63.71
21096;BME280;10706;49.036;12.112;2023-03-08T00:48:27;96320.34;;;2.06;63.40
21096;BME280;10706;49.036;12.112;2023-03-08T00:50:53;96322.63;;;2.03;63.30
21096;BME280;10706;49.036;12.112;2023-03-08T00:53:19;96313.13;;;2.02;64.56
21096;BME280;10706;49.036;12.112;2023-03-08T00:55:56;96313.28;;;2.07;64.89
21096;BME280;10706;49.036;12.112;2023-03-08T00:58:25;96316.66;;;2.14;64.20
21096;BME280;10706;49.036;12.112;2023-03-08T01:00:51;96303.84;;;2.18;63.23
21096;BME280;10706;49.036;12.112;2023-03-08T01:03:18;96310.91;;;2.24;64.27
21096;BME280;10706;49.036;12.112;2023-03-08T01:05:49;96305.25;;;2.20;63.79
21096;BME280;10706;49.036;12.112;2023-03-08T01:08:16;96305.47;;;2.19;63.90
21096;BME280;10706;49.036;12.112;2023-03-08T01:10:53;96298.59;;;2.18;63.46
21096;BME280;10706;49.036;12.112;2023-03-08T01:13:23;96299.84;;;2.15;63.56
21096;BME280;10706;49.036;12.112;2023-03-08T01:15:49;96297.88;;;2.10;64.16
21096;BME280;10706;49.036;12.112;2023-03-08T01:18:15;96298.28;;;2.07;64.37
21096;BME280;10706;49.036;12.112;2023-03-08T01:20:41;96296.44;;;2.08;63.82
21096;BME280;10706;49.036;12.112;2023-03-08T01:23:08;96292.22;;;2.07;63.53
21096;BME280;10706;49.036;12.112;2023-03-08T01:25:34;96296.44;;;2.08;63.62
21096;BME280;10706;49.036;12.112;2023-03-08T01:28:00;96290.94;;;2.16;64.00
21096;BME280;10706;49.036;12.112;2023-03-08T01:30:26;96289.25;;;2.22;62.93
21096;BME280;10706;49.036;12.112;2023-03-08T01:32:52;96292.00;;;2.27;62.30
21096;BME280;10706;49.036;12.112;2023-03-08T01:35:17;96287.84;;;2.38;62.96
21096;BME280;10706;49.036;12.112;2023-03-08T01:37:43;96291.53;;;2.37;61.36
21096;BME280;10706;49.036;12.112;2023-03-08T01:40:13;96293.72;;;2.40;62.82
21096;BME280;10706;49.036;12.112;2023-03-08T01:42:39;96290.28;;;2.39;63.34
21096;BME280;10706;49.036;12.112;2023-03-08T01:48:11;96293.06;;;2.44;62.70
21096;BME280;10706;49.036;12.112;2023-03-08T01:50:39;96277.38;;;2.49;61.39
21096;BME280;10706;49.036;12.112;2023-03-08T01:53:05;96280.59;;;2.51;61.02
21096;BME280;10706;49.036;12.112;2023-03-08T01:55:32;96289.91;;;2.54;60.49
21096;BME280;10706;49.036;12.112;2023-03-08T01:57:57;96290.72;;;2.55;61.85
21096;BME280;10706;49.036;12.112;2023-03-08T02:00:24;96281.91;;;2.61;60.40
21096;BME280;10706;49.036;12.112;2023-03-08T02:02:57;96290.66;;;2.61;60.72
21096;BME280;10706;49.036;12.112;2023-03-08T02:05:25;96288.00;;;2.61;60.38
21096;BME280;10706;49.036;12.112;2023-03-08T02:07:51;96291.00;;;2.65;60.68
21096;BME280;10706;49.036;12.112;2023-03-08T02:10:17;96282.00;;;2.72;59.87
21096;BME280;10706;49.036;12.112;2023-03-08T02:12:44;96282.59;;;2.75;59.25
21096;BME280;10706;49.036;12.112;2023-03-08T02:15:14;96284.44;;;2.74;59.20
21096;BME280;10706;49.036;12.112;2023-03-08T02:17:42;96278.91;;;2.76;59.62
21096;BME280;10706;49.036;12.112;2023-03-08T02:22:42;96292.91;;;2.76;60.17
21096;BME280;10706;49.036;12.112;2023-03-08T02:25:17;96278.03;;;2.82;60.53
21096;BME280;10706;49.036;12.112;2023-03-08T02:27:44;96275.69;;;2.73;60.39
21096;BME280;10706;49.036;12.112;2023-03-08T02:30:12;96271.09;;;2.69;60.26
21096;BME280;10706;49.036;12.112;2023-03-08T02:32:38;96275.84;;;2.60;61.06
21096;BME280;10706;49.036;12.112;2023-03-08T02:35:04;96265.03;;;2.50;61.90
21096;BME280;10706;49.036;12.112;2023-03-08T02:37:31;96271.53;;;2.47;60.18
21096;BME280;10706;49.036;12.112;2023-03-08T02:39:58;96273.00;;;2.43;61.72
21096;BME280;10706;49.036;12.112;2023-03-08T02:42:23;96269.06;;;2.34;61.91
21096;BME280;10706;49.036;12.112;2023-03-08T02:44:49;96267.72;;;2.25;62.14
21096;BME280;10706;49.036;12.112;2023-03-08T02:47:15;96261.66;;;2.24;61.10
21096;BME280;10706;49.036;12.112;2023-03-08T02:49:41;96262.09;;;2.21;60.71
21096;BME280;10706;49.036;12.112;2023-03-08T02:52:06;96265.59;;;2.15;60.89
21096;BME280;10706;49.036;12.112;2023-03-08T02:54:32;96265.31;;;2.05;61.78
21096;BME280;10706;49.036;12.112;2023-03-08T02:56:58;96267.63;;;1.94;63.23
21096;BME280;10706;49.036;12.112;2023-03-08T02:59:24;96281.06;;;1.86;63.12
21096;BME280;10706;49.036;12.112;2023-03-08T03:01:51;96274.63;;;1.82;63.05
21096;BME280;10706;49.036;12.112;2023-03-08T03:04:17;96273.88;;;1.75;63.13
21096;BME280;10706;49.036;12.112;2023-03-08T03:06:43;96279.13;;;1.75;63.57
21096;BME280;10706;49.036;12.112;2023-03-08T03:09:09;96273.66;;;1.77;64.42
21096;BME280;10706;49.036;12.112;2023-03-08T03:11:36;96276.13;;;1.71;64.15
21096;BME280;10706;49.036;12.112;2023-03-08T03:14:01;96272.91;;;1.69;64.05
21096;BME280;10706;49.036;12.112;2023-03-08T03:16:28;96279.97;;;1.69;63.93
21096;BME280;10706;49.036;12.112;2023-03-08T03:18:54;96277.97;;;1.71;64.63
21096;BME280;10706;49.036;12.112;2023-03-08T03:21:21;96281.78;;;1.75;64.22
21096;BME280;10706;49.036;12.112;2023-03-08T03:23:48;96287.63;;;1.77;64.76
21096;BME280;10706;49.036;12.112;2023-03-08T03:26:21;96287.03;;;1.75;64.92
21096;BME280;10706;49.036;12.112;2023-03-08T03:28:48;96283.38;;;1.76;63.88
21096;BME280;10706;49.036;12.112;2023-03-08T03:31:18;96285.56;;;1.79;63.26
21096;BME280;10706;49.036;12.112;2023-03-08T03:33:45;96289.59;;;1.82;64.06
21096;BME280;10706;49.036;12.112;2023-03-08T03:36:14;96299.28;;;1.88;63.39
21096;BME280;10706;49.036;12.112;2023-03-08T03:38:40;96298.66;;;1.86;64.63
21096;BME280;10706;49.036;12.112;2023-03-08T03:41:12;96303.13;;;1.85;64.89
21096;BME280;10706;49.036;12.112;2023-03-08T03:43:38;96296.03;;;1.86;64.35
21096;BME280;10706;49.036;12.112;2023-03-08T03:46:08;96296.84;;;1.86;65.26
21096;BME280;10706;49.036;12.112;2023-03-08T03:48:35;96292.59;;;1.85;63.56
21096;BME280;10706;49.036;12.112;2023-03-08T03:51:05;96293.63;;;1.84;64.79
21096;BME280;10706;49.036;12.112;2023-03-08T03:53:33;96294.84;;;1.82;64.37
21096;BME280;10706;49.036;12.112;2023-03-08T03:56:13;96290.66;;;1.74;65.23
21096;BME280;10706;49.036;12.112;2023-03-08T03:58:40;96290.75;;;1.67;64.52
21096;BME280;10706;49.036;12.112;2023-03-08T04:01:08;96287.56;;;1.59;64.86
21096;BME280;10706;49.036;12.112;2023-03-08T04:03:35;96293.22;;;1.55;66.06
21096;BME280;10706;49.036;12.112;2023-03-08T04:06:11;96294.09;;;1.49;65.38
21096;BME280;10706;49.036;12.112;2023-03-08T04:08:37;96296.94;;;1.48;66.31
21096;BME280;10706;49.036;12.112;2023-03-08T04:11:11;96290.69;;;1.42;66.43
21096;BME280;10706;49.036;12.112;2023-03-08T04:13:37;96290.75;;;1.35;65.93
21096;BME280;10706;49.036;12.112;2023-03-08T04:16:17;96279.06;;;1.31;66.58
21096;BME280;10706;49.036;12.112;2023-03-08T04:18:43;96279.69;;;1.27;66.19
21096;BME280;10706;49.036;12.112;2023-03-08T04:21:09;96280.34;;;1.22;66.92
21096;BME280;10706;49.036;12.112;2023-03-08T04:23:35;96278.72;;;1.21;66.87
21096;BME280;10706;49.036;12.112;2023-03-08T04:26:03;96267.13;;;1.29;66.65
21096;BME280;10706;49.036;12.112;2023-03-08T04:28:29;96263.53;;;1.23;66.14
21096;BME280;10706;49.036;12.112;2023-03-08T04:30:55;96268.00;;;1.23;67.48
21096;BME280;10706;49.036;12.112;2023-03-08T04:33:22;96261.50;;;1.25;66.89
21096;BME280;10706;49.036;12.112;2023-03-08T04:35:48;96255.81;;;1.28;66.34
21096;BME280;10706;49.036;12.112;2023-03-08T04:38:15;96262.66;;;1.29;66.20
21096;BME280;10706;49.036;12.112;2023-03-08T04:40:48;96251.13;;;1.37;66.52
21096;BME280;10706;49.036;12.112;2023-03-08T04:43:28;96252.72;;;1.38;66.39
21096;BME280;10706;49.036;12.112;2023-03-08T04:45:53;96262.38;;;1.44;66.91
21096;BME280;10706;49.036;12.112;2023-03-08T04:48:19;96259.91;;;1.49;66.66
21096;BME280;10706;49.036;12.112;2023-03-08T04:50:53;96262.13;;;1.52;65.74
21096;BME280;10706;49.036;12.112;2023-03-08T04:53:19;96262.72;;;1.54;66.68
21096;BME280;10706;49.036;12.112;2023-03-08T04:55:45;96265.56;;;1.53;65.96
21096;BME280;10706;49.036;12.112;2023-03-08T04:58:10;96260.88;;;1.55;66.08
21096;BME280;10706;49.036;12.112;2023-03-08T05:00:36;96262.50;;;1.56;65.65
21096;BME280;10706;49.036;12.112;2023-03-08T05:03:02;96256.19;;;1.57;66.45
21096;BME280;10706;49.036;12.112;2023-03-08T05:05:28;96254.38;;;1.58;65.18
21096;BME280;10706;49.036;12.112;2023-03-08T05:07:53;96254.38;;;1.58;65.78
21096;BME280;10706;49.036;12.112;2023-03-08T05:10:19;96245.69;;;1.57;66.60
21096;BME280;10706;49.036;12.112;2023-03-08T05:12:45;96244.28;;;1.54;66.47
21096;BME280;10706;49.036;12.112;2023-03-08T05:15:11;96235.16;;;1.57;65.70
21096;BME280;10706;49.036;12.112;2023-03-08T05:17:36;96238.16;;;1.61;65.59
21096;BME280;10706;49.036;12.112;2023-03-08T05:20:02;96227.22;;;1.64;66.36
21096;BME280;10706;49.036;12.112;2023-03-08T05:22:28;96216.50;;;1.65;65.72
21096;BME280;10706;49.036;12.112;2023-03-08T05:24:54;96221.84;;;1.77;66.12
21096;BME280;10706;49.036;12.112;2023-03-08T05:27:20;96217.88;;;1.68;66.13
21096;BME280;10706;49.036;12.112;2023-03-08T05:29:46;96222.56;;;1.66;67.12
21096;BME280;10706;49.036;12.112;2023-03-08T05:32:12;96221.97;;;1.64;66.61
21096;BME280;10706;49.036;12.112;2023-03-08T05:34:38;96218.03;;;1.73;66.36
21096;BME280;10706;49.036;12.112;2023-03-08T05:37:04;96211.69;;;1.81;64.95
21096;BME280;10706;49.036;12.112;2023-03-08T05:39:29;96212.44;;;1.88;64.02
21096;BME280;10706;49.036;12.112;2023-03-08T05:41:56;96213.66;;;1.85;64.36
21096;BME280;10706;49.036;12.112;2023-03-08T05:44:22;96207.50;;;1.91;64.51
21096;BME280;10706;49.036;12.112;2023-03-08T05:46:51;96206.00;;;2.02;65.55
21096;BME280;10706;49.036;12.112;2023-03-08T05:49:17;96202.19;;;1.98;64.69
21096;BME280;10706;49.036;12.112;2023-03-08T05:51:43;96199.50;;;2.05;64.86
21096;BME280;10706;49.036;12.112;2023-03-08T05:54:09;96190.34;;;2.07;64.79
21096;BME280;10706;49.036;12.112;2023-03-08T05:56:34;96199.06;;;2.08;64.67
21096;BME280;10706;49.036;12.112;2023-03-08T05:59:00;96189.34;;;2.08;65.31
21096;BME280;10706;49.036;12.112;2023-03-08T06:01:27;96183.41;;;2.13;64.27
21096;BME280;10706;49.036;12.112;2023-03-08T06:03:56;96184.41;;;2.12;64.18
21096;BME280;10706;49.036;12.112;2023-03-08T06:06:24;96181.78;;;2.12;65.28
21096;BME280;10706;49.036;12.112;2023-03-08T06:08:51;96186.47;;;2.10;65.43
21096;BME280;10706;49.036;12.112;2023-03-08T06:11:17;96184.19;;;2.13;66.61
21096;BME280;10706;49.036;12.112;2023-03-08T06:13:43;96186.09;;;2.06;66.41
21096;BME280;10706;49.036;12.112;2023-03-08T06:16:09;96182.25;;;2.09;66.75
21096;BME280;10706;49.036;12.112;2023-03-08T06:18:37;96184.56;;;1.99;67.27
21096;BME280;10706;49.036;12.112;2023-03-08T06:21:13;96201.78;;;2.01;66.81
21096;BME280;10706;49.036;12.112;2023-03-08T06:23:40;96199.06;;;2.08;66.87
21096;BME280;10706;49.036;12.112;2023-03-08T06:26:07;96209.16;;;2.11;67.09
21096;BME280;10706;49.036;12.112;2023-03-08T06:28:33;96205.47;;;2.12;67.72
21096;BME280;10706;49.036;12.112;2023-03-08T06:30:59;96206.78;;;2.21;66.45
21096;BME280;10706;49.036;12.112;2023-03-08T06:33:28;96219.97;;;2.21;66.65
21096;BME280;10706;49.036;12.112;2023-03-08T06:36:13;96226.31;;;2.13;66.51
21096;BME280;10706;49.036;12.112;2023-03-08T06:38:40;96220.41;;;2.18;67.10
21096;BME280;10706;49.036;12.112;2023-03-08T06:41:08;96207.00;;;2.38;67.19
21096;BME280;10706;49.036;12.112;2023-03-08T06:43:34;96221.75;;;2.27;66.54
21096;BME280;10706;49.036;12.112;2023-03-08T06:46:12;96229.91;;;2.19;68.03
21096;BME280;10706;49.036;12.112;2023-03-08T06:48:38;96242.06;;;2.20;67.61
21096;BME280;10706;49.036;12.112;2023-03-08T06:51:05;96233.63;;;2.11;67.27
21096;BME280;10706;49.036;12.112;2023-03-08T06:53:32;96237.69;;;2.14;67.39
21096;BME280;10706;49.036;12.112;2023-03-08T06:55:58;96229.75;;;2.32;67.22
21096;BME280;10706;49.036;12.112;2023-03-08T06:58:27;96219.09;;;2.27;67.82
21096;BME280;10706;49.036;12.112;2023-03-08T07:00:53;96226.91;;;2.34;67.44
21096;BME280;10706;49.036;12.112;2023-03-08T07:03:19;96221.44;;;2.36;68.88
21096;BME280;10706;49.036;12.112;2023-03-08T07:05:45;96221.94;;;2.44;68.68
21096;BME280;10706;49.036;12.112;2023-03-08T07:08:11;96213.38;;;2.49;67.07
21096;BME280;10706;49.036;12.112;2023-03-08T07:10:36;96225.06;;;2.53;67.36
21096;BME280;10706;49.036;12.112;2023-03-08T07:13:02;96221.31;;;2.61;68.28
21096;BME280;10706;49.036;12.112;2023-03-08T07:15:28;96221.41;;;2.54;68.29
21096;BME280;10706;49.036;12.112;2023-03-08T07:17:55;96229.19;;;2.49;68.88
21096;BME280;10706;49.036;12.112;2023-03-08T07:20:24;96227.06;;;2.58;67.67
21096;BME280;10706;49.036;12.112;2023-03-08T07:22:50;96227.53;;;2.66;69.31
21096;BME280;10706;49.036;12.112;2023-03-08T07:25:18;96221.31;;;2.61;68.13
21096;BME280;10706;49.036;12.112;2023-03-08T07:27:45;96217.81;;;2.67;68.80
21096;BME280;10706;49.036;12.112;2023-03-08T07:30:13;96213.03;;;2.76;68.18
21096;BME280;10706;49.036;12.112;2023-03-08T07:32:40;96210.53;;;2.81;67.97
21096;BME280;10706;49.036;12.112;2023-03-08T07:35:12;96208.94;;;2.80;68.75
21096;BME280;10706;49.036;12.112;2023-03-08T07:37:38;96214.91;;;2.87;68.26
21096;BME280;10706;49.036;12.112;2023-03-08T07:40:06;96208.94;;;2.80;68.03
21096;BME280;10706;49.036;12.112;2023-03-08T07:42:32;96213.03;;;2.76;68.98
21096;BME280;10706;49.036;12.112;2023-03-08T07:44:58;96212.00;;;2.77;70.10
21096;BME280;10706;49.036;12.112;2023-03-08T07:47:23;96210.09;;;2.84;69.10
21096;BME280;10706;49.036;12.112;2023-03-08T07:49:49;96219.47;;;2.80;69.73
21096;BME280;10706;49.036;12.112;2023-03-08T07:52:15;96203.31;;;2.76;69.04
21096;BME280;10706;49.036;12.112;2023-03-08T07:54:41;96200.50;;;3.01;68.30
21096;BME280;10706;49.036;12.112;2023-03-08T07:57:13;96191.16;;;2.75;68.53
21096;BME280;10706;49.036;12.112;2023-03-08T07:59:40;96195.78;;;2.91;70.12
21096;BME280;10706;49.036;12.112;2023-03-08T08:02:12;96192.97;;;2.75;69.78
21096;BME280;10706;49.036;12.112;2023-03-08T08:04:39;96187.53;;;2.88;70.10
21096;BME280;10706;49.036;12.112;2023-03-08T08:07:06;96186.19;;;2.97;68.56
21096;BME280;10706;49.036;12.112;2023-03-08T08:09:35;96187.47;;;3.18;67.56
21096;BME280;10706;49.036;12.112;2023-03-08T08:12:03;96187.19;;;3.38;67.99
21096;BME280;10706;49.036;12.112;2023-03-08T08:14:29;96181.69;;;3.40;68.70
21096;BME280;10706;49.036;12.112;2023-03-08T08:16:54;96189.81;;;3.38;68.98
21096;BME280;10706;49.036;12.112;2023-03-08T08:19:20;96183.97;;;3.60;66.94
21096;BME280;10706;49.036;12.112;2023-03-08T08:21:46;96177.78;;;3.78;66.85
21096;BME280;10706;49.036;12.112;2023-03-08T08:24:11;96179.97;;;3.93;67.16
21096;BME280;10706;49.036;12.112;2023-03-08T08:26:38;96172.50;;;3.89;65.94
21096;BME280;10706;49.036;12.112;2023-03-08T08:29:04;96172.13;;;3.98;67.70
21096;BME280;10706;49.036;12.112;2023-03-08T08:31:30;96170.16;;;4.17;66.50
21096;BME280;10706;49.036;12.112;2023-03-08T08:33:57;96171.53;;;4.19;65.31
21096;BME280;10706;49.036;12.112;2023-03-08T08:36:23;96173.28;;;4.02;66.78
21096;BME280;10706;49.036;12.112;2023-03-08T08:38:50;96154.16;;;4.23;65.40
21096;BME280;10706;49.036;12.112;2023-03-08T08:41:17;96156.91;;;4.28;65.26
21096;BME280;10706;49.036;12.112;2023-03-08T08:43:45;96152.50;;;4.05;65.88
21096;BME280;10706;49.036;12.112;2023-03-08T08:46:12;96158.78;;;4.16;66.91
21096;BME280;10706;49.036;12.112;2023-03-08T08:48:39;96162.63;;;3.85;65.54
21096;BME280;10706;49.036;12.112;2023-03-08T08:51:08;96154.81;;;3.90;66.66
21096;BME280;10706;49.036;12.112;2023-03-08T08:53:34;96140.88;;;4.06;65.52
21096;BME280;10706;49.036;12.112;2023-03-08T08:56:17;96130.94;;;3.97;66.65
21096;BME280;10706;49.036;12.112;2023-03-08T08:58:43;96121.94;;;3.98;67.08
21096;BME280;10706;49.036;12.112;2023-03-08T09:01:25;96123.34;;;3.88;66.16
21096;BME280;10706;49.036;12.112;2023-03-08T09:03:53;96118.78;;;3.84;67.80
21096;BME280;10706;49.036;12.112;2023-03-08T09:06:21;96112.81;;;3.77;67.83
21096;BME280;10706;49.036;12.112;2023-03-08T09:08:55;96110.06;;;3.83;67.07
21096;BME280;10706;49.036;12.112;2023-03-08T09:11:22;96108.09;;;3.91;67.20
21096;BME280;10706;49.036;12.112;2023-03-08T09:13:49;96101.56;;;3.81;69.21
21096;BME280;10706;49.036;12.112;2023-03-08T09:16:32;96102.72;;;3.85;70.67
21096;BME280;10706;49.036;12.112;2023-03-08T09:19:01;96096.28;;;3.81;70.03
21096;BME280;10706;49.036;12.112;2023-03-08T09:21:29;96084.75;;;3.59;71.88
21096;BME280;10706;49.036;12.112;2023-03-08T09:24:02;96076.56;;;3.60;74.07
21096;BME280;10706;49.036;12.112;2023-03-08T09:26:32;96068.75;;;3.65;73.70
21096;BME280;10706;49.036;12.112;2023-03-08T09:28:59;96063.03;;;3.68;72.84
21096;BME280;10706;49.036;12.112;2023-03-08T09:31:30;96064.84;;;3.80;74.00
21096;BME280;10706;49.036;12.112;2023-03-08T09:33:56;96068.47;;;4.02;74.54
21096;BME280;10706;49.036;12.112;2023-03-08T09:36:22;96065.84;;;3.91;74.35
21096;BME280;10706;49.036;12.112;2023-03-08T09:38:49;96059.91;;;3.83;74.43
21096;BME280;10706;49.036;12.112;2023-03-08T09:44:50;96040.09;;;3.57;77.53
21096;BME280;10706;49.036;12.112;2023-03-08T09:55:34;96020.75;;;3.28;84.14
21096;BME280;10706;49.036;12.112;2023-03-08T10:00:47;95996.78;;;3.29;86.76
21096;BME280;10706;49.036;12.112;2023-03-08T10:09:35;95984.34;;;3.54;86.40
21096;BME280;10706;49.036;12.112;2023-03-08T10:15:18;95964.13;;;3.19;88.94
21096;BME280;10706;49.036;12.112;2023-03-08T10:18:36;95953.56;;;3.19;88.90
21096;BME280;10706;49.036;12.112;2023-03-08T10:21:09;95944.91;;;2.95;87.99
21096;BME280;10706;49.036;12.112;2023-03-08T10:23:38;95935.19;;;2.95;91.63
21096;BME280;10706;49.036;12.112;2023-03-08T10:26:11;95931.63;;;2.66;91.15
21096;BME280;10706;49.036;12.112;2023-03-08T10:28:38;95921.19;;;2.36;91.76
21096;BME280;10706;49.036;12.112;2023-03-08T10:31:23;95926.47;;;2.36;93.89
21096;BME280;10706;49.036;12.112;2023-03-08T10:34:22;95932.31;;;2.38;94.91
21096;BME280;10706;49.036;12.112;2023-03-08T10:37:13;95929.44;;;2.27;93.63
21096;BME280;10706;49.036;12.112;2023-03-08T10:39:51;95932.97;;;2.21;94.77
21096;BME280;10706;49.036;12.112;2023-03-08T10:42:23;95926.91;;;2.09;95.53
21096;BME280;10706;49.036;12.112;2023-03-08T10:45:13;95931.38;;;2.08;96.66
21096;BME280;10706;49.036;12.112;2023-03-08T10:47:39;95930.69;;;2.13;96.56
21096;BME280;10706;49.036;12.112;2023-03-08T10:50:17;95928.97;;;2.19;97.78
21096;BME280;10706;49.036;12.112;2023-03-08T10:52:45;95935.34;;;1.99;96.15
21096;BME280;10706;49.036;12.112;2023-03-08T10:55:29;95936.28;;;1.74;97.85
21096;BME280;10706;49.036;12.112;2023-03-08T10:58:02;95935.28;;;1.75;97.23
21096;BME280;10706;49.036;12.112;2023-03-08T11:00:38;95937.72;;;1.59;98.02
21096;BME280;10706;49.036;12.112;2023-03-08T11:03:25;95928.69;;;1.54;99.33
21096;BME280;10706;49.036;12.112;2023-03-08T11:08:51;95927.06;;;1.53;99.88
21096;BME280;10706;49.036;12.112;2023-03-08T11:11:18;95924.75;;;1.45;100.00
21096;BME280;10706;49.036;12.112;2023-03-08T11:13:49;95925.66;;;1.39;100.00
21096;BME280;10706;49.036;12.112;2023-03-08T11:36:43;95884.69;;;1.62;100.00
21096;BME280;10706;49.036;12.112;2023-03-08T11:39:34;95883.97;;;1.54;100.00
21096;BME280;10706;49.036;12.112;2023-03-08T11:51:05;95869.50;;;1.87;100.00
21096;BME280;10706;49.036;12.112;2023-03-08T11:58:57;95862.91;;;1.97;100.00
21096;BME280;10706;49.036;12.112;2023-03-08T12:04:34;95849.63;;;2.15;100.00
21096;BME280;10706;49.036;12.112;2023-03-08T12:07:18;95860.28;;;2.20;100.00
21096;BME280;10706;49.036;12.112;2023-03-08T12:10:17;95849.63;;;2.27;100.00
21096;BME280;10706;49.036;12.112;2023-03-08T12:18:46;95833.13;;;2.55;100.00
21096;BME280;10706;49.036;12.112;2023-03-08T12:30:53;95806.69;;;2.90;100.00
21096;BME280;10706;49.036;12.112;2023-03-08T12:33:21;95803.16;;;2.85;100.00
21096;BME280;10706;49.036;12.112;2023-03-08T12:35:59;95803.53;;;2.77;100.00
21096;BME280;10706;49.036;12.112;2023-03-08T12:40:56;95802.72;;;2.88;100.00
21096;BME280;10706;49.036;12.112;2023-03-08T12:56:29;95787.47;;;2.90;100.00
21096;BME280;10706;49.036;12.112;2023-03-08T13:01:42;95779.88;;;2.94;100.00
21096;BME280;10706;49.036;12.112;2023-03-08T13:07:36;95762.22;;;2.94;100.00
21096;BME280;10706;49.036;12.112;2023-03-08T13:10:20;95758.97;;;3.33;100.00
21096;BME280;10706;49.036;12.112;2023-03-08T13:15:36;95758.84;;;3.10;100.00
21096;BME280;10706;49.036;12.112;2023-03-08T13:18:17;95751.09;;;3.21;100.00
21096;BME280;10706;49.036;12.112;2023-03-08T13:20:59;95754.00;;;3.19;100.00
21096;BME280;10706;49.036;12.112;2023-03-08T13:23:50;95743.28;;;3.26;100.00
21096;BME280;10706;49.036;12.112;2023-03-08T13:26:56;95738.16;;;3.19;100.00
21096;BME280;10706;49.036;12.112;2023-03-08T13:29:30;95753.09;;;3.14;100.00
21096;BME280;10706;49.036;12.112;2023-03-08T13:31:56;95741.81;;;3.18;100.00
21096;BME280;10706;49.036;12.112;2023-03-08T13:34:30;95739.41;;;3.17;100.00
21096;BME280;10706;49.036;12.112;2023-03-08T13:36:56;95749.00;;;3.23;100.00
21096;BME280;10706;49.036;12.112;2023-03-08T13:39:27;95747.34;;;3.34;100.00
21096;BME280;10706;49.036;12.112;2023-03-08T13:42:09;95752.16;;;3.37;100.00
21096;BME280;10706;49.036;12.112;2023-03-08T13:44:36;95745.44;;;3.29;100.00
21096;BME280;10706;49.036;12.112;2023-03-08T13:47:24;95740.72;;;3.31;100.00
21096;BME280;10706;49.036;12.112;2023-03-08T13:49:53;95749.94;;;3.28;100.00
21096;BME280;10706;49.036;12.112;2023-03-08T13:52:27;95742.56;;;3.30;100.00
21096;BME280;10706;49.036;12.112;2023-03-08T13:55:00;95751.28;;;3.31;100.00
21096;BME280;10706;49.036;12.112;2023-03-08T13:57:31;95739.31;;;3.40;100.00
21096;BME280;10706;49.036;12.112;2023-03-08T14:00:35;95729.13;;;3.49;100.00
21096;BME280;10706;49.036;12.112;2023-03-08T14:03:03;95738.81;;;3.43;100.00
21096;BME280;10706;49.036;12.112;2023-03-08T14:05:39;95753.03;;;3.42;100.00
21096;BME280;10706;49.036;12.112;2023-03-08T14:08:14;95737.38;;;3.53;100.00
21096;BME280;10706;49.036;12.112;2023-03-08T14:10:58;95733.63;;;3.48;100.00
21096;BME280;10706;49.036;12.112;2023-03-08T14:13:37;95727.38;;;3.55;100.00
21096;BME280;10706;49.036;12.112;2023-03-08T14:16:08;95706.53;;;3.53;100.00
21096;BME280;10706;49.036;12.112;2023-03-08T14:18:36;95710.28;;;3.57;100.00
21096;BME280;10706;49.036;12.112;2023-03-08T14:21:27;95713.56;;;3.64;100.00
21096;BME280;10706;49.036;12.112;2023-03-08T14:24:00;95722.81;;;3.67;100.00
21096;BME280;10706;49.036;12.112;2023-03-08T14:26:38;95717.78;;;3.65;100.00
21096;BME280;10706;49.036;12.112;2023-03-08T14:29:16;95718.19;;;3.74;100.00
21096;BME280;10706;49.036;12.112;2023-03-08T14:32:04;95711.13;;;3.80;100.00
21096;BME280;10706;49.036;12.112;2023-03-08T14:34:34;95700.34;;;3.81;100.00
21096;BME280;10706;49.036;12.112;2023-03-08T14:37:13;95689.00;;;4.03;100.00
21096;BME280;10706;49.036;12.112;2023-03-08T14:39:48;95705.91;;;4.02;100.00
21096;BME280;10706;49.036;12.112;2023-03-08T14:42:23;95696.28;;;3.96;100.00
21096;BME280;10706;49.036;12.112;2023-03-08T14:45:40;95686.72;;;3.89;100.00
21096;BME280;10706;49.036;12.112;2023-03-08T14:50:55;95695.63;;;3.83;100.00
21096;BME280;10706;49.036;12.112;2023-03-08T14:53:40;95689.22;;;3.79;100.00
21096;BME280;10706;49.036;12.112;2023-03-08T14:56:16;95681.28;;;4.18;100.00
21096;BME280;10706;49.036;12.112;2023-03-08T14:58:47;95674.66;;;4.16;100.00
21096;BME280;10706;49.036;12.112;2023-03-08T15:01:33;95663.78;;;4.34;100.00
21096;BME280;10706;49.036;12.112;2023-03-08T15:04:00;95668.75;;;4.31;100.00
21096;BME280;10706;49.036;12.112;2023-03-08T15:06:32;95662.53;;;4.42;100.00